sensor_id;sensor_type;location;lat;lon;timestamp;temperature;humidity
318;DHT22;146;53.448;10.228;2022-07-22T00:01:38;20.90;11.60
318;DHT22;146;53.448;10.228;2022-07-22T00:04:05;20.90;11.50
318;DHT22;146;53.448;10.228;2022-07-22T00:06:32;20.90;11.40
318;DHT22;146;53.448;10.228;2022-07-22T00:08:59;20.90;11.40
318;DHT22;146;53.448;10.228;2022-07-22T00:11:27;20.90;11.40
318;DHT22;146;53.448;10.228;2022-07-22T00:13:53;20.90;11.40
318;DHT22;146;53.448;10.228;2022-07-22T00:16:20;21.00;11.50
318;DHT22;146;53.448;10.228;2022-07-22T00:18:47;21.00;11.60
318;DHT22;146;53.448;10.228;2022-07-22T00:21:14;20.90;11.50
318;DHT22;146;53.448;10.228;2022-07-22T00:23:40;20.90;11.60
318;DHT22;146;53.448;10.228;2022-07-22T00:26:09;20.90;11.60
318;DHT22;146;53.448;10.228;2022-07-22T00:28:38;20.90;11.60
318;DHT22;146;53.448;10.228;2022-07-22T00:31:05;20.90;11.70
318;DHT22;146;53.448;10.228;2022-07-22T00:33:32;20.90;11.80
318;DHT22;146;53.448;10.228;2022-07-22T00:35:59;20.80;11.90
318;DHT22;146;53.448;10.228;2022-07-22T00:38:26;20.80;12.10
318;DHT22;146;53.448;10.228;2022-07-22T00:40:52;20.70;12.40
318;DHT22;146;53.448;10.228;2022-07-22T00:43:19;20.60;12.70
318;DHT22;146;53.448;10.228;2022-07-22T00:45:47;20.60;13.10
318;DHT22;146;53.448;10.228;2022-07-22T00:48:14;20.60;13.40
318;DHT22;146;53.448;10.228;2022-07-22T00:50:41;20.60;13.50
318;DHT22;146;53.448;10.228;2022-07-22T00:53:09;20.60;14.10
318;DHT22;146;53.448;10.228;2022-07-22T00:55:36;20.60;14.40
318;DHT22;146;53.448;10.228;2022-07-22T00:58:03;20.60;14.40
318;DHT22;146;53.448;10.228;2022-07-22T01:00:31;20.60;14.40
318;DHT22;146;53.448;10.228;2022-07-22T01:02:59;20.60;14.40
318;DHT22;146;53.448;10.228;2022-07-22T01:05:29;20.60;14.40
318;DHT22;146;53.448;10.228;2022-07-22T01:07:56;20.50;14.90
318;DHT22;146;53.448;10.228;2022-07-22T01:10:22;20.30;14.70
318;DHT22;146;53.448;10.228;2022-07-22T01:12:49;20.10;14.20
318;DHT22;146;53.448;10.228;2022-07-22T01:15:16;19.90;13.50
318;DHT22;146;53.448;10.228;2022-07-22T01:17:43;19.70;12.90
318;DHT22;146;53.448;10.228;2022-07-22T01:20:11;19.60;13.10
318;DHT22;146;53.448;10.228;2022-07-22T01:22:39;19.50;13.60
318;DHT22;146;53.448;10.228;2022-07-22T01:25:06;19.50;13.90
318;DHT22;146;53.448;10.228;2022-07-22T01:27:33;19.40;13.80
318;DHT22;146;53.448;10.228;2022-07-22T01:30:00;19.30;13.90
318;DHT22;146;53.448;10.228;2022-07-22T01:32:27;19.30;14.10
318;DHT22;146;53.448;10.228;2022-07-22T01:34:53;19.20;14.40
318;DHT22;146;53.448;10.228;2022-07-22T01:37:22;19.10;14.80
318;DHT22;146;53.448;10.228;2022-07-22T01:39:49;19.10;14.90
318;DHT22;146;53.448;10.228;2022-07-22T01:42:16;19.10;15.30
318;DHT22;146;53.448;10.228;2022-07-22T01:44:43;19.10;15.50
318;DHT22;146;53.448;10.228;2022-07-22T01:47:10;19.10;15.60
318;DHT22;146;53.448;10.228;2022-07-22T01:49:36;19.20;15.70
318;DHT22;146;53.448;10.228;2022-07-22T01:52:04;19.20;15.50
318;DHT22;146;53.448;10.228;2022-07-22T01:54:33;19.20;14.80
318;DHT22;146;53.448;10.228;2022-07-22T01:57:00;19.20;14.40
318;DHT22;146;53.448;10.228;2022-07-22T01:59:27;19.00;13.40
318;DHT22;146;53.448;10.228;2022-07-22T02:01:54;19.00;13.60
318;DHT22;146;53.448;10.228;2022-07-22T02:04:21;18.80;13.30
318;DHT22;146;53.448;10.228;2022-07-22T02:06:47;18.80;13.70
318;DHT22;146;53.448;10.228;2022-07-22T02:09:14;18.80;13.60
318;DHT22;146;53.448;10.228;2022-07-22T02:11:43;18.70;13.70
318;DHT22;146;53.448;10.228;2022-07-22T02:14:10;18.70;13.70
318;DHT22;146;53.448;10.228;2022-07-22T02:16:37;18.70;13.50
318;DHT22;146;53.448;10.228;2022-07-22T02:19:04;18.60;12.70
318;DHT22;146;53.448;10.228;2022-07-22T02:21:30;18.60;12.10
318;DHT22;146;53.448;10.228;2022-07-22T02:23:57;18.60;11.70
318;DHT22;146;53.448;10.228;2022-07-22T02:26:24;18.50;11.50
318;DHT22;146;53.448;10.228;2022-07-22T02:28:52;18.50;11.80
318;DHT22;146;53.448;10.228;2022-07-22T02:31:19;18.50;12.00
318;DHT22;146;53.448;10.228;2022-07-22T02:33:47;18.50;12.00
318;DHT22;146;53.448;10.228;2022-07-22T02:36:13;18.50;11.90
318;DHT22;146;53.448;10.228;2022-07-22T02:38:40;18.40;11.30
318;DHT22;146;53.448;10.228;2022-07-22T02:41:07;18.40;11.40
318;DHT22;146;53.448;10.228;2022-07-22T02:43:34;18.30;11.30
318;DHT22;146;53.448;10.228;2022-07-22T02:46:03;18.30;11.10
318;DHT22;146;53.448;10.228;2022-07-22T02:48:30;18.20;11.10
318;DHT22;146;53.448;10.228;2022-07-22T02:50:56;18.20;10.50
318;DHT22;146;53.448;10.228;2022-07-22T02:53:23;18.10;10.30
318;DHT22;146;53.448;10.228;2022-07-22T02:55:50;18.10;10.20
318;DHT22;146;53.448;10.228;2022-07-22T02:58:17;18.10;10.10
318;DHT22;146;53.448;10.228;2022-07-22T03:00:44;18.10;10.10
318;DHT22;146;53.448;10.228;2022-07-22T03:03:12;18.10;10.50
318;DHT22;146;53.448;10.228;2022-07-22T03:05:39;18.20;10.20
318;DHT22;146;53.448;10.228;2022-07-22T03:08:05;18.20;9.90
318;DHT22;146;53.448;10.228;2022-07-22T03:10:32;18.10;9.80
318;DHT22;146;53.448;10.228;2022-07-22T03:12:59;18.10;9.10
318;DHT22;146;53.448;10.228;2022-07-22T03:15:26;18.10;9.10
318;DHT22;146;53.448;10.228;2022-07-22T03:17:52;18.00;9.00
318;DHT22;146;53.448;10.228;2022-07-22T03:20:21;18.00;9.10
318;DHT22;146;53.448;10.228;2022-07-22T03:22:47;18.10;9.00
318;DHT22;146;53.448;10.228;2022-07-22T03:25:14;18.10;8.70
318;DHT22;146;53.448;10.228;2022-07-22T03:27:41;18.00;8.80
318;DHT22;146;53.448;10.228;2022-07-22T03:30:08;18.00;8.60
318;DHT22;146;53.448;10.228;2022-07-22T03:32:35;18.10;8.80
318;DHT22;146;53.448;10.228;2022-07-22T03:35:02;18.10;8.80
318;DHT22;146;53.448;10.228;2022-07-22T03:37:31;18.10;8.10
318;DHT22;146;53.448;10.228;2022-07-22T03:39:57;18.10;7.90
318;DHT22;146;53.448;10.228;2022-07-22T03:42:24;18.10;8.00
318;DHT22;146;53.448;10.228;2022-07-22T03:44:51;18.20;7.60
318;DHT22;146;53.448;10.228;2022-07-22T03:47:19;18.20;7.20
318;DHT22;146;53.448;10.228;2022-07-22T03:49:46;18.20;7.30
318;DHT22;146;53.448;10.228;2022-07-22T03:52:12;18.20;6.70
318;DHT22;146;53.448;10.228;2022-07-22T03:54:41;18.10;7.00
318;DHT22;146;53.448;10.228;2022-07-22T03:57:08;18.10;7.60
318;DHT22;146;53.448;10.228;2022-07-22T03:59:35;18.20;7.70
318;DHT22;146;53.448;10.228;2022-07-22T04:02:03;18.10;7.90
318;DHT22;146;53.448;10.228;2022-07-22T04:04:29;18.10;8.30
318;DHT22;146;53.448;10.228;2022-07-22T04:06:56;18.10;9.30
318;DHT22;146;53.448;10.228;2022-07-22T04:09:23;18.20;9.50
318;DHT22;146;53.448;10.228;2022-07-22T04:11:51;18.30;9.30
318;DHT22;146;53.448;10.228;2022-07-22T04:14:18;18.30;9.10
318;DHT22;146;53.448;10.228;2022-07-22T04:16:45;18.20;8.60
318;DHT22;146;53.448;10.228;2022-07-22T04:19:13;18.30;8.70
318;DHT22;146;53.448;10.228;2022-07-22T04:21:39;18.30;8.40
318;DHT22;146;53.448;10.228;2022-07-22T04:24:07;18.30;8.50
318;DHT22;146;53.448;10.228;2022-07-22T04:26:34;18.10;8.50
318;DHT22;146;53.448;10.228;2022-07-22T04:29:03;18.00;9.10
318;DHT22;146;53.448;10.228;2022-07-22T04:31:30;17.90;10.10
318;DHT22;146;53.448;10.228;2022-07-22T04:33:57;17.70;10.60
318;DHT22;146;53.448;10.228;2022-07-22T04:36:24;17.70;11.30
318;DHT22;146;53.448;10.228;2022-07-22T04:38:51;17.70;11.70
318;DHT22;146;53.448;10.228;2022-07-22T04:41:18;17.60;12.10
318;DHT22;146;53.448;10.228;2022-07-22T04:43:45;17.60;12.30
318;DHT22;146;53.448;10.228;2022-07-22T04:46:13;17.60;12.40
318;DHT22;146;53.448;10.228;2022-07-22T04:48:40;17.50;12.50
318;DHT22;146;53.448;10.228;2022-07-22T04:51:06;17.50;12.90
318;DHT22;146;53.448;10.228;2022-07-22T04:53:33;17.40;12.90
318;DHT22;146;53.448;10.228;2022-07-22T04:56:00;17.40;13.30
318;DHT22;146;53.448;10.228;2022-07-22T04:58:27;17.30;14.00
318;DHT22;146;53.448;10.228;2022-07-22T05:00:54;17.30;14.10
318;DHT22;146;53.448;10.228;2022-07-22T05:03:22;17.20;14.50
318;DHT22;146;53.448;10.228;2022-07-22T05:05:50;17.20;15.00
318;DHT22;146;53.448;10.228;2022-07-22T05:08:16;17.10;15.20
318;DHT22;146;53.448;10.228;2022-07-22T05:10:43;17.10;15.70
318;DHT22;146;53.448;10.228;2022-07-22T05:13:12;17.10;16.10
318;DHT22;146;53.448;10.228;2022-07-22T05:15:39;17.10;16.50
318;DHT22;146;53.448;10.228;2022-07-22T05:18:06;17.10;16.90
318;DHT22;146;53.448;10.228;2022-07-22T05:20:34;17.10;17.00
318;DHT22;146;53.448;10.228;2022-07-22T05:23:02;17.10;17.10
318;DHT22;146;53.448;10.228;2022-07-22T05:25:29;17.10;17.30
318;DHT22;146;53.448;10.228;2022-07-22T05:27:56;17.10;17.30
318;DHT22;146;53.448;10.228;2022-07-22T05:30:23;17.10;17.40
318;DHT22;146;53.448;10.228;2022-07-22T05:32:50;17.20;17.40
318;DHT22;146;53.448;10.228;2022-07-22T05:35:17;17.20;17.40
318;DHT22;146;53.448;10.228;2022-07-22T05:37:46;17.10;17.00
318;DHT22;146;53.448;10.228;2022-07-22T05:40:13;17.10;16.90
318;DHT22;146;53.448;10.228;2022-07-22T05:42:40;17.10;16.70
318;DHT22;146;53.448;10.228;2022-07-22T05:45:07;17.10;16.40
318;DHT22;146;53.448;10.228;2022-07-22T05:47:34;17.20;16.60
318;DHT22;146;53.448;10.228;2022-07-22T05:50:01;17.20;16.40
318;DHT22;146;53.448;10.228;2022-07-22T05:52:28;17.10;15.90
318;DHT22;146;53.448;10.228;2022-07-22T05:54:58;17.20;15.50
318;DHT22;146;53.448;10.228;2022-07-22T05:57:25;17.20;14.90
318;DHT22;146;53.448;10.228;2022-07-22T05:59:52;17.20;15.00
318;DHT22;146;53.448;10.228;2022-07-22T06:02:19;17.20;14.70
318;DHT22;146;53.448;10.228;2022-07-22T06:04:46;17.20;14.20
318;DHT22;146;53.448;10.228;2022-07-22T06:07:13;17.20;14.10
318;DHT22;146;53.448;10.228;2022-07-22T06:09:40;17.20;13.70
318;DHT22;146;53.448;10.228;2022-07-22T06:12:08;17.20;13.30
318;DHT22;146;53.448;10.228;2022-07-22T06:14:35;17.10;12.70
318;DHT22;146;53.448;10.228;2022-07-22T06:17:03;17.20;12.80
318;DHT22;146;53.448;10.228;2022-07-22T06:19:30;17.20;12.70
318;DHT22;146;53.448;10.228;2022-07-22T06:21:57;17.30;13.00
318;DHT22;146;53.448;10.228;2022-07-22T06:24:24;17.30;12.90
318;DHT22;146;53.448;10.228;2022-07-22T06:26:51;17.40;12.40
318;DHT22;146;53.448;10.228;2022-07-22T06:29:19;17.40;12.60
318;DHT22;146;53.448;10.228;2022-07-22T06:35:27;17.60;12.50
318;DHT22;146;53.448;10.228;2022-07-22T06:37:54;17.90;11.80
318;DHT22;146;53.448;10.228;2022-07-22T06:40:21;18.00;10.70
318;DHT22;146;53.448;10.228;2022-07-22T06:42:48;18.10;11.00
318;DHT22;146;53.448;10.228;2022-07-22T06:45:16;18.00;8.50
318;DHT22;146;53.448;10.228;2022-07-22T06:47:43;18.20;8.90
318;DHT22;146;53.448;10.228;2022-07-22T06:50:10;18.40;8.20
318;DHT22;146;53.448;10.228;2022-07-22T06:52:38;18.40;6.90
318;DHT22;146;53.448;10.228;2022-07-22T06:55:07;18.40;5.70
318;DHT22;146;53.448;10.228;2022-07-22T06:57:34;18.40;5.80
318;DHT22;146;53.448;10.228;2022-07-22T07:00:02;18.60;6.00
318;DHT22;146;53.448;10.228;2022-07-22T07:02:30;18.60;5.60
318;DHT22;146;53.448;10.228;2022-07-22T07:04:57;18.60;6.00
318;DHT22;146;53.448;10.228;2022-07-22T07:07:24;18.60;5.10
318;DHT22;146;53.448;10.228;2022-07-22T07:09:51;18.70;4.60
318;DHT22;146;53.448;10.228;2022-07-22T07:12:17;18.60;3.40
318;DHT22;146;53.448;10.228;2022-07-22T07:14:44;18.70;3.80
318;DHT22;146;53.448;10.228;2022-07-22T07:17:11;18.70;2.90
318;DHT22;146;53.448;10.228;2022-07-22T07:19:39;18.70;3.40
318;DHT22;146;53.448;10.228;2022-07-22T07:22:06;18.80;3.70
318;DHT22;146;53.448;10.228;2022-07-22T07:24:33;18.70;2.50
318;DHT22;146;53.448;10.228;2022-07-22T07:27:00;18.70;2.30
318;DHT22;146;53.448;10.228;2022-07-22T07:29:26;18.70;1.20
318;DHT22;146;53.448;10.228;2022-07-22T07:31:53;18.80;1.00
318;DHT22;146;53.448;10.228;2022-07-22T07:34:20;18.70;1.00
318;DHT22;146;53.448;10.228;2022-07-22T07:36:48;18.60;1.00
318;DHT22;146;53.448;10.228;2022-07-22T07:42:35;18.70;1.70
318;DHT22;146;53.448;10.228;2022-07-22T07:45:02;18.70;1.00
318;DHT22;146;53.448;10.228;2022-07-22T07:47:29;18.70;1.00
318;DHT22;146;53.448;10.228;2022-07-22T07:49:56;18.80;1.00
318;DHT22;146;53.448;10.228;2022-07-22T07:52:27;18.90;1.00
318;DHT22;146;53.448;10.228;2022-07-22T07:54:53;18.90;1.00
318;DHT22;146;53.448;10.228;2022-07-22T07:57:21;18.90;1.00
318;DHT22;146;53.448;10.228;2022-07-22T07:59:48;18.90;1.00
318;DHT22;146;53.448;10.228;2022-07-22T08:02:15;18.90;1.00
318;DHT22;146;53.448;10.228;2022-07-22T08:04:41;19.00;1.00
318;DHT22;146;53.448;10.228;2022-07-22T08:07:08;19.10;1.00
318;DHT22;146;53.448;10.228;2022-07-22T08:09:37;19.00;1.00
318;DHT22;146;53.448;10.228;2022-07-22T08:12:04;19.00;1.00
318;DHT22;146;53.448;10.228;2022-07-22T08:14:31;19.00;1.00
318;DHT22;146;53.448;10.228;2022-07-22T08:16:57;18.90;1.00
318;DHT22;146;53.448;10.228;2022-07-22T08:19:24;19.00;1.00
318;DHT22;146;53.448;10.228;2022-07-22T08:21:51;18.80;1.00
318;DHT22;146;53.448;10.228;2022-07-22T08:24:18;18.80;1.00
318;DHT22;146;53.448;10.228;2022-07-22T08:26:46;18.80;1.00
318;DHT22;146;53.448;10.228;2022-07-22T08:29:13;18.90;1.00
318;DHT22;146;53.448;10.228;2022-07-22T08:31:40;18.90;1.00
318;DHT22;146;53.448;10.228;2022-07-22T08:34:07;18.90;1.00
318;DHT22;146;53.448;10.228;2022-07-22T08:36:34;19.00;1.00
318;DHT22;146;53.448;10.228;2022-07-22T08:39:01;19.10;1.00
318;DHT22;146;53.448;10.228;2022-07-22T08:41:34;19.10;1.00
318;DHT22;146;53.448;10.228;2022-07-22T08:44:03;19.10;1.00
318;DHT22;146;53.448;10.228;2022-07-22T08:46:30;19.20;1.00
318;DHT22;146;53.448;10.228;2022-07-22T08:48:57;19.30;1.00
318;DHT22;146;53.448;10.228;2022-07-22T08:51:26;19.40;1.00
318;DHT22;146;53.448;10.228;2022-07-22T08:53:53;19.50;1.00
318;DHT22;146;53.448;10.228;2022-07-22T08:56:20;19.60;1.00
318;DHT22;146;53.448;10.228;2022-07-22T08:58:47;19.60;1.00
318;DHT22;146;53.448;10.228;2022-07-22T09:01:16;19.60;1.00
318;DHT22;146;53.448;10.228;2022-07-22T09:03:46;19.50;1.00
318;DHT22;146;53.448;10.228;2022-07-22T09:06:15;19.40;1.00
318;DHT22;146;53.448;10.228;2022-07-22T09:08:52;19.40;1.00
318;DHT22;146;53.448;10.228;2022-07-22T09:11:21;19.20;1.00
318;DHT22;146;53.448;10.228;2022-07-22T09:13:49;19.10;1.00
318;DHT22;146;53.448;10.228;2022-07-22T09:16:38;19.00;1.00
318;DHT22;146;53.448;10.228;2022-07-22T09:50:14;19.70;1.00
318;DHT22;146;53.448;10.228;2022-07-22T09:52:41;19.80;1.00
318;DHT22;146;53.448;10.228;2022-07-22T09:55:08;19.70;1.00
318;DHT22;146;53.448;10.228;2022-07-22T09:57:35;19.70;1.00
318;DHT22;146;53.448;10.228;2022-07-22T10:00:04;19.60;1.00
318;DHT22;146;53.448;10.228;2022-07-22T10:02:35;19.60;1.00
318;DHT22;146;53.448;10.228;2022-07-22T10:05:04;19.50;1.00
318;DHT22;146;53.448;10.228;2022-07-22T10:07:32;19.50;1.00
318;DHT22;146;53.448;10.228;2022-07-22T10:10:05;19.60;1.00
318;DHT22;146;53.448;10.228;2022-07-22T10:12:33;19.60;1.00
318;DHT22;146;53.448;10.228;2022-07-22T10:15:01;19.50;1.00
318;DHT22;146;53.448;10.228;2022-07-22T10:17:28;19.40;1.00
318;DHT22;146;53.448;10.228;2022-07-22T10:19:56;19.50;1.00
318;DHT22;146;53.448;10.228;2022-07-22T10:22:47;19.40;1.00
318;DHT22;146;53.448;10.228;2022-07-22T10:25:16;19.40;1.00
318;DHT22;146;53.448;10.228;2022-07-22T10:27:44;19.40;1.00
318;DHT22;146;53.448;10.228;2022-07-22T10:30:13;19.50;1.00
318;DHT22;146;53.448;10.228;2022-07-22T10:32:41;19.60;1.00
318;DHT22;146;53.448;10.228;2022-07-22T10:35:23;19.70;1.00
318;DHT22;146;53.448;10.228;2022-07-22T10:37:55;19.80;1.00
318;DHT22;146;53.448;10.228;2022-07-22T10:40:24;19.80;1.00
318;DHT22;146;53.448;10.228;2022-07-22T10:43:09;19.90;1.00
318;DHT22;146;53.448;10.228;2022-07-22T10:45:39;20.10;1.00
318;DHT22;146;53.448;10.228;2022-07-22T10:48:08;20.20;1.00
318;DHT22;146;53.448;10.228;2022-07-22T10:50:40;20.20;1.00
318;DHT22;146;53.448;10.228;2022-07-22T10:53:10;20.30;1.00
318;DHT22;146;53.448;10.228;2022-07-22T10:55:38;20.30;1.00
318;DHT22;146;53.448;10.228;2022-07-22T10:58:42;20.50;1.00
318;DHT22;146;53.448;10.228;2022-07-22T11:01:11;20.50;1.00
318;DHT22;146;53.448;10.228;2022-07-22T11:03:40;20.60;1.00
318;DHT22;146;53.448;10.228;2022-07-22T11:06:23;20.80;1.00
318;DHT22;146;53.448;10.228;2022-07-22T11:08:54;20.70;1.00
318;DHT22;146;53.448;10.228;2022-07-22T11:11:32;20.70;1.00
318;DHT22;146;53.448;10.228;2022-07-22T11:14:00;20.60;1.00
318;DHT22;146;53.448;10.228;2022-07-22T11:16:28;20.60;1.00
318;DHT22;146;53.448;10.228;2022-07-22T11:18:56;20.50;1.00
318;DHT22;146;53.448;10.228;2022-07-22T11:21:25;20.50;1.00
318;DHT22;146;53.448;10.228;2022-07-22T11:23:55;20.50;1.00
318;DHT22;146;53.448;10.228;2022-07-22T11:26:25;20.50;1.00
318;DHT22;146;53.448;10.228;2022-07-22T11:28:54;20.40;1.00
318;DHT22;146;53.448;10.228;2022-07-22T11:31:21;20.20;1.00
318;DHT22;146;53.448;10.228;2022-07-22T11:33:48;20.00;1.00
318;DHT22;146;53.448;10.228;2022-07-22T11:36:15;20.10;1.00
318;DHT22;146;53.448;10.228;2022-07-22T11:39:02;20.10;1.00
318;DHT22;146;53.448;10.228;2022-07-22T11:45:55;20.50;1.00
318;DHT22;146;53.448;10.228;2022-07-22T11:48:22;20.50;1.00
318;DHT22;146;53.448;10.228;2022-07-22T11:50:49;20.60;1.00
318;DHT22;146;53.448;10.228;2022-07-22T11:53:24;20.60;1.00
318;DHT22;146;53.448;10.228;2022-07-22T11:55:56;20.60;1.00
318;DHT22;146;53.448;10.228;2022-07-22T11:58:37;20.60;1.00
318;DHT22;146;53.448;10.228;2022-07-22T12:01:05;20.60;1.00
318;DHT22;146;53.448;10.228;2022-07-22T12:03:33;20.70;1.00
318;DHT22;146;53.448;10.228;2022-07-22T12:06:02;20.70;1.00
318;DHT22;146;53.448;10.228;2022-07-22T12:08:29;20.70;1.00
318;DHT22;146;53.448;10.228;2022-07-22T12:10:58;20.70;1.00
318;DHT22;146;53.448;10.228;2022-07-22T12:13:29;20.70;1.00
318;DHT22;146;53.448;10.228;2022-07-22T12:15:56;20.80;1.00
318;DHT22;146;53.448;10.228;2022-07-22T12:18:25;20.90;1.00
318;DHT22;146;53.448;10.228;2022-07-22T12:20:53;20.80;1.00
318;DHT22;146;53.448;10.228;2022-07-22T12:23:20;20.90;1.00
318;DHT22;146;53.448;10.228;2022-07-22T12:25:57;20.90;1.00
318;DHT22;146;53.448;10.228;2022-07-22T12:28:24;21.00;1.00
318;DHT22;146;53.448;10.228;2022-07-22T12:30:53;21.10;1.00
318;DHT22;146;53.448;10.228;2022-07-22T12:33:21;21.20;1.00
318;DHT22;146;53.448;10.228;2022-07-22T12:36:04;21.20;1.00
318;DHT22;146;53.448;10.228;2022-07-22T12:38:31;21.30;1.00
318;DHT22;146;53.448;10.228;2022-07-22T12:41:24;21.20;1.00
318;DHT22;146;53.448;10.228;2022-07-22T12:43:51;21.20;1.00
318;DHT22;146;53.448;10.228;2022-07-22T12:46:18;21.20;1.00
318;DHT22;146;53.448;10.228;2022-07-22T12:48:50;21.00;1.00
318;DHT22;146;53.448;10.228;2022-07-22T12:51:16;21.00;1.00
318;DHT22;146;53.448;10.228;2022-07-22T12:53:43;20.90;1.00
318;DHT22;146;53.448;10.228;2022-07-22T12:56:10;20.90;1.00
318;DHT22;146;53.448;10.228;2022-07-22T12:58:38;21.00;1.00
318;DHT22;146;53.448;10.228;2022-07-22T13:01:06;21.00;1.00
318;DHT22;146;53.448;10.228;2022-07-22T13:03:33;21.10;1.00
318;DHT22;146;53.448;10.228;2022-07-22T13:06:03;21.10;1.00
318;DHT22;146;53.448;10.228;2022-07-22T13:08:30;21.20;1.00
318;DHT22;146;53.448;10.228;2022-07-22T13:10:57;21.20;1.00
318;DHT22;146;53.448;10.228;2022-07-22T13:13:24;21.30;1.00
318;DHT22;146;53.448;10.228;2022-07-22T13:15:53;21.30;1.00
318;DHT22;146;53.448;10.228;2022-07-22T13:18:20;21.30;1.00
318;DHT22;146;53.448;10.228;2022-07-22T13:20:47;21.40;1.00
318;DHT22;146;53.448;10.228;2022-07-22T13:23:14;21.50;1.00
318;DHT22;146;53.448;10.228;2022-07-22T13:25:42;21.50;1.00
318;DHT22;146;53.448;10.228;2022-07-22T13:28:12;21.60;1.00
318;DHT22;146;53.448;10.228;2022-07-22T13:30:39;21.60;1.00
318;DHT22;146;53.448;10.228;2022-07-22T13:33:07;21.60;1.00
318;DHT22;146;53.448;10.228;2022-07-22T13:35:34;21.50;1.00
318;DHT22;146;53.448;10.228;2022-07-22T13:38:01;21.50;1.00
318;DHT22;146;53.448;10.228;2022-07-22T13:40:29;21.40;1.00
318;DHT22;146;53.448;10.228;2022-07-22T13:42:56;21.50;1.00
318;DHT22;146;53.448;10.228;2022-07-22T13:45:24;21.50;1.00
318;DHT22;146;53.448;10.228;2022-07-22T13:47:50;21.50;1.00
318;DHT22;146;53.448;10.228;2022-07-22T13:50:19;21.40;1.00
318;DHT22;146;53.448;10.228;2022-07-22T13:52:45;21.30;1.00
318;DHT22;146;53.448;10.228;2022-07-22T13:55:13;21.30;1.00
318;DHT22;146;53.448;10.228;2022-07-22T13:57:40;21.30;1.00
318;DHT22;146;53.448;10.228;2022-07-22T14:00:09;21.20;1.00
318;DHT22;146;53.448;10.228;2022-07-22T14:02:37;21.00;1.00
318;DHT22;146;53.448;10.228;2022-07-22T14:05:04;21.10;1.00
318;DHT22;146;53.448;10.228;2022-07-22T14:07:33;21.00;1.00
318;DHT22;146;53.448;10.228;2022-07-22T14:09:59;21.00;1.00
318;DHT22;146;53.448;10.228;2022-07-22T14:12:27;20.90;1.00
318;DHT22;146;53.448;10.228;2022-07-22T14:14:54;20.90;1.00
318;DHT22;146;53.448;10.228;2022-07-22T14:17:20;21.00;1.00
318;DHT22;146;53.448;10.228;2022-07-22T14:19:47;21.20;1.00
318;DHT22;146;53.448;10.228;2022-07-22T14:22:14;21.30;1.00
318;DHT22;146;53.448;10.228;2022-07-22T14:24:42;21.30;1.00
318;DHT22;146;53.448;10.228;2022-07-22T14:27:09;21.30;1.00
318;DHT22;146;53.448;10.228;2022-07-22T14:29:36;21.30;1.00
318;DHT22;146;53.448;10.228;2022-07-22T14:32:03;21.30;1.00
318;DHT22;146;53.448;10.228;2022-07-22T14:34:30;21.40;1.00
318;DHT22;146;53.448;10.228;2022-07-22T14:36:57;21.50;1.00
318;DHT22;146;53.448;10.228;2022-07-22T14:39:24;21.50;1.00
318;DHT22;146;53.448;10.228;2022-07-22T14:41:52;21.40;1.00
318;DHT22;146;53.448;10.228;2022-07-22T14:44:19;21.40;1.00
318;DHT22;146;53.448;10.228;2022-07-22T14:46:46;21.50;1.00
318;DHT22;146;53.448;10.228;2022-07-22T14:49:13;21.60;1.00
318;DHT22;146;53.448;10.228;2022-07-22T14:51:41;21.60;1.00
318;DHT22;146;53.448;10.228;2022-07-22T14:54:08;21.70;1.00
318;DHT22;146;53.448;10.228;2022-07-22T14:56:36;21.60;1.00
318;DHT22;146;53.448;10.228;2022-07-22T14:59:05;21.60;1.00
318;DHT22;146;53.448;10.228;2022-07-22T15:01:32;21.60;1.00
318;DHT22;146;53.448;10.228;2022-07-22T15:03:59;21.50;1.00
318;DHT22;146;53.448;10.228;2022-07-22T15:06:25;21.50;1.00
318;DHT22;146;53.448;10.228;2022-07-22T15:08:52;21.50;1.00
318;DHT22;146;53.448;10.228;2022-07-22T15:11:19;21.40;1.00
318;DHT22;146;53.448;10.228;2022-07-22T15:13:46;21.40;1.00
318;DHT22;146;53.448;10.228;2022-07-22T15:16:15;21.40;1.00
318;DHT22;146;53.448;10.228;2022-07-22T15:18:42;21.50;1.00
318;DHT22;146;53.448;10.228;2022-07-22T15:21:08;21.40;1.00
318;DHT22;146;53.448;10.228;2022-07-22T15:23:36;21.30;1.00
318;DHT22;146;53.448;10.228;2022-07-22T15:26:03;21.30;1.00
318;DHT22;146;53.448;10.228;2022-07-22T15:28:30;21.30;1.00
318;DHT22;146;53.448;10.228;2022-07-22T15:30:57;21.20;1.00
318;DHT22;146;53.448;10.228;2022-07-22T15:33:25;21.30;1.00
318;DHT22;146;53.448;10.228;2022-07-22T15:35:52;21.30;1.00
318;DHT22;146;53.448;10.228;2022-07-22T15:38:19;21.30;1.00
318;DHT22;146;53.448;10.228;2022-07-22T15:40:46;21.30;1.00
318;DHT22;146;53.448;10.228;2022-07-22T15:43:12;21.30;1.00
318;DHT22;146;53.448;10.228;2022-07-22T15:45:39;21.40;1.00
318;DHT22;146;53.448;10.228;2022-07-22T15:48:06;21.30;1.00
318;DHT22;146;53.448;10.228;2022-07-22T15:50:34;21.30;1.00
318;DHT22;146;53.448;10.228;2022-07-22T15:53:01;21.30;1.00
318;DHT22;146;53.448;10.228;2022-07-22T15:55:28;21.20;1.00
318;DHT22;146;53.448;10.228;2022-07-22T15:57:56;21.00;1.00
318;DHT22;146;53.448;10.228;2022-07-22T16:00:40;21.10;1.00
318;DHT22;146;53.448;10.228;2022-07-22T16:03:07;21.00;1.00
318;DHT22;146;53.448;10.228;2022-07-22T16:05:35;20.90;1.00
318;DHT22;146;53.448;10.228;2022-07-22T16:08:01;20.90;1.00
318;DHT22;146;53.448;10.228;2022-07-22T16:10:28;21.00;1.00
318;DHT22;146;53.448;10.228;2022-07-22T16:12:55;20.90;1.00
318;DHT22;146;53.448;10.228;2022-07-22T16:15:22;20.90;1.00
318;DHT22;146;53.448;10.228;2022-07-22T16:17:49;20.90;1.00
318;DHT22;146;53.448;10.228;2022-07-22T16:20:16;20.90;1.00
318;DHT22;146;53.448;10.228;2022-07-22T16:22:44;21.00;1.00
318;DHT22;146;53.448;10.228;2022-07-22T16:25:11;21.00;1.00
318;DHT22;146;53.448;10.228;2022-07-22T16:27:38;21.00;1.00
318;DHT22;146;53.448;10.228;2022-07-22T16:30:06;20.90;1.00
318;DHT22;146;53.448;10.228;2022-07-22T16:32:33;20.90;1.00
318;DHT22;146;53.448;10.228;2022-07-22T16:35:00;20.80;1.00
318;DHT22;146;53.448;10.228;2022-07-22T16:37:27;20.70;1.00
318;DHT22;146;53.448;10.228;2022-07-22T16:39:55;20.60;1.00
318;DHT22;146;53.448;10.228;2022-07-22T16:42:21;20.50;1.00
318;DHT22;146;53.448;10.228;2022-07-22T16:44:48;20.50;1.00
318;DHT22;146;53.448;10.228;2022-07-22T16:47:15;20.50;1.00
318;DHT22;146;53.448;10.228;2022-07-22T16:49:42;20.50;1.00
318;DHT22;146;53.448;10.228;2022-07-22T16:52:09;20.50;1.00
318;DHT22;146;53.448;10.228;2022-07-22T16:54:36;20.50;1.00
318;DHT22;146;53.448;10.228;2022-07-22T16:57:04;20.50;1.00
318;DHT22;146;53.448;10.228;2022-07-22T16:59:31;20.50;1.00
318;DHT22;146;53.448;10.228;2022-07-22T17:01:58;20.60;1.00
318;DHT22;146;53.448;10.228;2022-07-22T17:04:25;20.60;1.00
318;DHT22;146;53.448;10.228;2022-07-22T17:06:52;20.50;1.00
318;DHT22;146;53.448;10.228;2022-07-22T17:09:19;20.50;1.00
318;DHT22;146;53.448;10.228;2022-07-22T17:11:46;20.60;1.00
318;DHT22;146;53.448;10.228;2022-07-22T17:14:14;20.60;1.00
318;DHT22;146;53.448;10.228;2022-07-22T17:16:41;20.50;1.00